createdAt,value
2023-01-22T00:01:01.372Z,11.85
2023-01-22T00:03:28.143Z,10.60
2023-01-22T00:05:55.126Z,10.13
2023-01-22T00:08:22.031Z,10.93
2023-01-22T00:10:49.830Z,10.48
2023-01-22T00:13:18.199Z,10.27
2023-01-22T00:15:45.046Z,10.20
2023-01-22T00:18:11.922Z,9.80
2023-01-22T00:20:41.444Z,9.38
2023-01-22T00:23:08.396Z,9.68
2023-01-22T00:25:35.162Z,9.85
2023-01-22T00:28:02.117Z,9.32
2023-01-22T00:30:30.529Z,9.90
2023-01-22T00:32:57.536Z,9.20
2023-01-22T00:35:25.301Z,9.48
2023-01-22T00:37:52.233Z,8.55
2023-01-22T00:40:19.564Z,8.80
2023-01-22T00:42:47.024Z,8.77
2023-01-22T00:45:15.008Z,9.10
2023-01-22T00:47:43.352Z,9.40
2023-01-22T00:50:11.669Z,9.88
2023-01-22T00:52:38.918Z,9.00
2023-01-22T00:55:09.484Z,9.02
2023-01-22T00:57:43.823Z,8.60
2023-01-22T01:00:13.458Z,8.90
2023-01-22T01:02:40.669Z,8.82
2023-01-22T01:05:09.504Z,9.43
2023-01-22T01:07:36.457Z,10.52
2023-01-22T01:10:03.439Z,9.30
2023-01-22T01:12:30.273Z,8.95
2023-01-22T01:14:57.084Z,8.63
2023-01-22T01:17:23.843Z,9.52
2023-01-22T01:19:51.351Z,9.52
2023-01-22T01:22:19.593Z,9.63
2023-01-22T01:24:46.431Z,9.35
2023-01-22T01:27:13.191Z,9.18
2023-01-22T01:29:39.905Z,9.10
2023-01-22T01:32:06.647Z,9.20
2023-01-22T01:34:33.377Z,9.20
2023-01-22T01:37:00.209Z,9.23
2023-01-22T01:39:28.417Z,9.73
2023-01-22T01:41:55.092Z,9.00
2023-01-22T01:44:23.436Z,9.45
2023-01-22T01:46:53.055Z,10.23
2023-01-22T01:49:30.820Z,10.25
2023-01-22T01:52:01.961Z,10.05
2023-01-22T01:54:31.078Z,9.48
2023-01-22T01:57:04.125Z,9.48
2023-01-22T01:59:31.697Z,10.85
2023-01-22T02:01:58.441Z,10.40
2023-01-22T02:04:28.205Z,10.52
2023-01-22T02:06:55.036Z,11.02
2023-01-22T02:09:22.250Z,11.23
2023-01-22T02:11:53.253Z,11.13
2023-01-22T02:14:23.954Z,11.30
2023-01-22T02:17:00.267Z,8.35
2023-01-22T02:19:27.022Z,11.30
2023-01-22T02:21:55.218Z,11.23
2023-01-22T02:24:23.145Z,11.43
2023-01-22T02:26:50.412Z,11.30
2023-01-22T02:29:17.614Z,10.55
2023-01-22T02:31:45.010Z,11.20
2023-01-22T02:34:12.900Z,11.43
2023-01-22T02:36:40.369Z,11.75
2023-01-22T02:39:08.693Z,12.20
2023-01-22T02:41:38.270Z,11.43
2023-01-22T02:44:05.887Z,10.90
2023-01-22T02:46:32.820Z,10.77
2023-01-22T02:48:59.897Z,11.50
2023-01-22T02:51:26.620Z,11.40
2023-01-22T02:53:54.195Z,11.80
2023-01-22T02:56:22.870Z,11.98
2023-01-22T02:58:50.063Z,12.20
2023-01-22T03:01:19.728Z,12.57
2023-01-22T03:03:47.227Z,12.48
2023-01-22T03:06:14.209Z,12.13
2023-01-22T03:08:41.584Z,12.23
2023-01-22T03:11:08.370Z,12.75
2023-01-22T03:13:36.493Z,12.43
2023-01-22T03:16:04.111Z,13.27
2023-01-22T03:18:32.159Z,12.32
2023-01-22T03:20:59.342Z,12.70
2023-01-22T03:23:26.452Z,11.20
2023-01-22T03:25:56.545Z,10.55
2023-01-22T03:28:23.419Z,10.45
2023-01-22T03:30:52.333Z,9.63
2023-01-22T03:33:19.533Z,10.00
2023-01-22T03:35:49.524Z,9.52
2023-01-22T03:38:16.483Z,9.27
2023-01-22T03:40:44.406Z,9.93
2023-01-22T03:43:11.503Z,10.65
2023-01-22T03:45:39.483Z,8.68
2023-01-22T03:48:07.690Z,8.15
2023-01-22T03:50:35.107Z,7.85
2023-01-22T03:53:02.095Z,7.05
2023-01-22T03:55:28.847Z,7.55
2023-01-22T03:57:56.130Z,6.97
2023-01-22T04:00:23.480Z,6.60
2023-01-22T04:02:50.289Z,6.55
2023-01-22T04:05:18.934Z,7.07
2023-01-22T04:07:45.957Z,6.53
2023-01-22T04:10:12.651Z,6.55
2023-01-22T04:12:39.466Z,5.22
2023-01-22T04:15:10.617Z,5.25
2023-01-22T04:20:04.855Z,5.45
2023-01-22T04:22:33.753Z,5.18
2023-01-22T04:25:00.453Z,4.95
2023-01-22T04:27:27.416Z,5.28
2023-01-22T04:29:54.269Z,4.53
2023-01-22T04:32:21.234Z,5.30
2023-01-22T04:34:48.028Z,5.38
2023-01-22T04:37:14.998Z,5.30
2023-01-22T04:39:43.172Z,5.10
2023-01-22T04:42:10.885Z,4.80
2023-01-22T04:44:38.215Z,4.55
2023-01-22T04:47:05.111Z,4.75
2023-01-22T04:49:32.113Z,4.93
2023-01-22T04:51:59.672Z,4.93
2023-01-22T04:54:26.684Z,5.63
2023-01-22T04:57:00.263Z,4.63
2023-01-22T04:59:29.328Z,5.22
2023-01-22T05:02:03.449Z,4.82
2023-01-22T05:04:30.998Z,5.63
2023-01-22T05:07:00.593Z,5.28
2023-01-22T05:09:30.968Z,5.00
2023-01-22T05:12:02.055Z,5.33
2023-01-22T05:14:28.848Z,5.35
2023-01-22T05:16:55.623Z,4.80
2023-01-22T05:19:22.385Z,4.68
2023-01-22T05:21:49.191Z,4.63
2023-01-22T05:24:15.956Z,4.45
2023-01-22T05:26:42.965Z,5.40
2023-01-22T05:29:11.619Z,4.78
2023-01-22T05:31:38.522Z,5.35
2023-01-22T05:34:05.405Z,5.05
2023-01-22T05:36:32.372Z,4.72
2023-01-22T05:38:59.141Z,4.22
2023-01-22T05:41:26.077Z,5.10
2023-01-22T05:43:52.928Z,4.10
2023-01-22T05:46:21.208Z,4.65
2023-01-22T05:48:48.050Z,4.38
2023-01-22T05:51:14.952Z,4.05
2023-01-22T05:53:41.715Z,4.25
2023-01-22T05:56:10.246Z,4.38
2023-01-22T05:58:37.135Z,4.97
2023-01-22T06:01:04.638Z,4.40
2023-01-22T06:03:32.986Z,5.05
2023-01-22T06:06:00.354Z,4.25
2023-01-22T06:08:27.876Z,4.82
2023-01-22T06:10:59.769Z,4.28
2023-01-22T06:13:26.689Z,3.38
2023-01-22T06:15:53.745Z,3.40
2023-01-22T06:18:22.101Z,4.13
2023-01-22T06:20:50.639Z,4.00
2023-01-22T06:23:17.878Z,3.65
2023-01-22T06:25:51.566Z,3.58
2023-01-22T06:28:18.550Z,3.45
2023-01-22T06:30:45.745Z,3.80
2023-01-22T06:33:15.021Z,3.72
2023-01-22T06:35:43.820Z,4.07
2023-01-22T06:38:12.112Z,3.70
2023-01-22T06:40:39.255Z,3.40
2023-01-22T06:43:06.664Z,3.38
2023-01-22T06:45:33.720Z,3.90
2023-01-22T06:48:00.498Z,3.60
2023-01-22T06:50:30.772Z,3.92
2023-01-22T06:52:57.510Z,3.50
2023-01-22T06:55:25.866Z,3.90
2023-01-22T06:57:54.627Z,3.30
2023-01-22T07:00:24.824Z,3.10
2023-01-22T07:02:52.055Z,3.40
2023-01-22T07:05:18.897Z,3.10
2023-01-22T07:07:45.998Z,3.63
2023-01-22T07:10:13.838Z,3.38
2023-01-22T07:12:43.630Z,3.33
2023-01-22T07:15:13.483Z,3.63
2023-01-22T07:17:40.484Z,3.50
2023-01-22T07:20:08.263Z,3.35
2023-01-22T07:22:35.042Z,3.28
2023-01-22T07:25:02.380Z,3.60
2023-01-22T07:27:29.814Z,3.67
2023-01-22T07:29:59.522Z,3.53
2023-01-22T07:32:26.408Z,3.25
2023-01-22T07:34:53.333Z,4.10
2023-01-22T07:37:20.061Z,3.75
2023-01-22T07:39:47.049Z,3.83
2023-01-22T07:42:14.186Z,3.63
2023-01-22T07:44:40.926Z,3.80
2023-01-22T07:47:12.276Z,4.22
2023-01-22T07:49:39.343Z,4.07
2023-01-22T07:52:16.862Z,4.07
2023-01-22T07:54:43.790Z,3.60
2023-01-22T07:57:10.689Z,4.50
2023-01-22T07:59:37.526Z,4.75
2023-01-22T08:02:04.390Z,4.22
2023-01-22T08:04:32.843Z,4.25
2023-01-22T08:06:59.703Z,4.75
2023-01-22T08:09:26.370Z,4.70
2023-01-22T08:11:53.652Z,5.25
2023-01-22T08:14:20.512Z,4.50
2023-01-22T08:16:47.725Z,5.05
2023-01-22T08:19:14.860Z,4.95
2023-01-22T08:21:43.286Z,5.07
2023-01-22T08:24:10.337Z,4.60
2023-01-22T08:26:37.336Z,4.85
2023-01-22T08:29:07.789Z,5.38
2023-01-22T08:31:35.073Z,5.03
2023-01-22T08:34:02.155Z,5.05
2023-01-22T08:36:29.062Z,5.35
2023-01-22T08:38:57.268Z,5.18
2023-01-22T08:41:24.777Z,4.70
2023-01-22T08:43:52.228Z,5.05
2023-01-22T08:46:20.051Z,5.30
2023-01-22T08:48:47.240Z,6.63
2023-01-22T08:51:14.352Z,5.70
2023-01-22T08:53:41.421Z,5.35
2023-01-22T08:56:10.094Z,5.70
2023-01-22T08:58:37.258Z,6.05
2023-01-22T09:01:04.558Z,5.40
2023-01-22T09:03:31.685Z,5.82
2023-01-22T09:05:58.964Z,6.00
2023-01-22T09:08:26.177Z,5.85
2023-01-22T09:10:52.946Z,6.00
2023-01-22T09:13:21.196Z,6.10
2023-01-22T09:15:48.071Z,5.85
2023-01-22T09:18:14.907Z,6.90
2023-01-22T09:20:41.791Z,6.47
2023-01-22T09:23:09.032Z,6.57
2023-01-22T09:25:36.168Z,6.47
2023-01-22T09:28:11.860Z,6.60
2023-01-22T09:30:40.083Z,5.95
2023-01-22T09:33:07.389Z,6.53
2023-01-22T09:35:34.318Z,6.45
2023-01-22T09:38:01.355Z,6.28
2023-01-22T09:40:31.385Z,6.65
2023-01-22T09:43:04.255Z,6.03
2023-01-22T09:45:34.071Z,6.20
2023-01-22T09:48:11.639Z,7.10
2023-01-22T09:50:39.090Z,6.85
2023-01-22T09:53:11.677Z,6.93
2023-01-22T09:55:44.766Z,7.57
2023-01-22T09:58:18.418Z,8.80
2023-01-22T10:00:50.863Z,12.18
2023-01-22T10:03:24.826Z,8.07
2023-01-22T10:05:56.969Z,7.97
2023-01-22T10:08:26.355Z,7.40
2023-01-22T10:10:53.828Z,7.25
2023-01-22T10:13:22.300Z,7.05
2023-01-22T10:15:51.602Z,6.95
2023-01-22T10:18:29.632Z,6.60
2023-01-22T10:21:00.697Z,6.47
2023-01-22T10:23:28.057Z,6.50
2023-01-22T10:25:59.949Z,7.00
2023-01-22T10:28:28.752Z,6.07
2023-01-22T10:30:55.884Z,6.20
2023-01-22T10:33:23.536Z,6.13
2023-01-22T10:35:53.824Z,6.35
2023-01-22T10:38:22.950Z,6.10
2023-01-22T10:40:54.567Z,6.85
2023-01-22T10:43:31.702Z,6.32
2023-01-22T10:46:04.799Z,5.95
2023-01-22T10:48:33.312Z,6.22
2023-01-22T10:51:11.496Z,6.32
2023-01-22T10:53:44.344Z,5.40
2023-01-22T10:56:13.134Z,5.82
2023-01-22T10:58:47.473Z,5.85
2023-01-22T11:01:31.473Z,6.15
2023-01-22T11:03:58.167Z,5.57
2023-01-22T11:06:39.590Z,5.60
2023-01-22T11:11:39.094Z,5.38
2023-01-22T11:14:13.525Z,5.85
2023-01-22T11:16:45.567Z,5.38
2023-01-22T11:19:14.231Z,5.38
2023-01-22T11:21:46.412Z,5.68
2023-01-22T11:24:17.153Z,5.75
2023-01-22T11:27:03.090Z,6.10
2023-01-22T11:30:01.974Z,5.43
2023-01-22T11:33:14.467Z,5.15
2023-01-22T11:35:47.885Z,5.80
2023-01-22T11:38:43.068Z,5.30
2023-01-22T11:41:35.040Z,5.40
2023-01-22T11:44:37.712Z,5.55
2023-01-22T11:47:34.510Z,6.00
2023-01-22T11:50:24.531Z,5.55
2023-01-22T11:53:02.030Z,5.68
2023-01-22T11:55:48.297Z,5.80
2023-01-22T11:58:25.773Z,5.85
2023-01-22T12:01:07.880Z,5.32
2023-01-22T12:04:00.277Z,6.15
2023-01-22T12:06:45.907Z,6.03
2023-01-22T12:09:22.091Z,5.78
2023-01-22T12:12:27.111Z,6.70
2023-01-22T12:15:06.586Z,5.60
2023-01-22T12:17:47.118Z,6.55
2023-01-22T12:20:35.642Z,6.80
2023-01-22T12:23:08.660Z,5.60
2023-01-22T12:25:41.948Z,5.45
2023-01-22T12:28:16.567Z,5.82
2023-01-22T12:30:50.930Z,5.75
2023-01-22T12:33:22.615Z,6.97
2023-01-22T12:35:51.804Z,5.43
2023-01-22T12:38:31.445Z,5.85
2023-01-22T12:41:21.537Z,6.45
2023-01-22T12:43:55.408Z,5.82
2023-01-22T12:46:33.550Z,6.22
2023-01-22T12:49:06.083Z,5.85
2023-01-22T12:51:51.129Z,5.57
2023-01-22T12:54:20.682Z,6.05
2023-01-22T12:56:48.409Z,5.57
2023-01-22T12:59:42.364Z,5.80
2023-01-22T13:02:40.219Z,6.45
2023-01-22T13:05:16.906Z,5.28
2023-01-22T13:07:44.183Z,5.78
2023-01-22T13:10:25.028Z,5.28
2023-01-22T13:12:55.360Z,5.20
2023-01-22T13:15:26.734Z,6.73
2023-01-22T13:18:06.495Z,6.18
2023-01-22T13:20:36.467Z,5.90
2023-01-22T13:23:06.175Z,5.63
2023-01-22T13:25:33.947Z,5.75
2023-01-22T13:28:01.676Z,5.40
2023-01-22T13:30:31.043Z,5.70
2023-01-22T13:33:07.061Z,5.35
2023-01-22T13:35:36.240Z,5.20
2023-01-22T13:38:03.817Z,6.38
2023-01-22T13:40:42.683Z,5.95
2023-01-22T13:43:17.185Z,6.20
2023-01-22T13:45:46.203Z,5.53
2023-01-22T13:48:16.917Z,5.57
2023-01-22T13:50:47.575Z,6.25
2023-01-22T13:53:26.957Z,6.70
2023-01-22T13:55:55.827Z,5.80
2023-01-22T13:58:47.302Z,6.03
2023-01-22T14:01:28.506Z,6.20
2023-01-22T14:03:59.828Z,6.10
2023-01-22T14:08:57.817Z,6.40
2023-01-22T14:11:24.734Z,6.03
2023-01-22T14:13:55.866Z,6.20
2023-01-22T14:16:24.176Z,6.47
2023-01-22T14:18:53.073Z,5.68
2023-01-22T14:21:20.192Z,6.07
2023-01-22T14:23:48.115Z,6.30
2023-01-22T14:26:15.542Z,6.50
2023-01-22T14:28:42.369Z,6.82
2023-01-22T14:31:12.240Z,7.43
2023-01-22T14:33:40.653Z,6.85
2023-01-22T14:36:08.632Z,7.40
2023-01-22T14:38:35.568Z,6.95
2023-01-22T14:41:04.196Z,7.57
2023-01-22T14:43:31.214Z,7.82
2023-01-22T14:46:00.459Z,7.15
2023-01-22T14:48:27.669Z,7.90
2023-01-22T14:50:56.390Z,7.20
2023-01-22T14:53:23.280Z,7.90
2023-01-22T14:55:53.476Z,7.05
2023-01-22T14:58:20.286Z,7.70
2023-01-22T15:00:47.029Z,7.03
2023-01-22T15:03:14.053Z,6.97
2023-01-22T15:05:40.938Z,7.90
2023-01-22T15:08:10.338Z,7.97
2023-01-22T15:10:37.354Z,7.72
2023-01-22T15:13:04.267Z,7.47
2023-01-22T15:15:31.013Z,7.80
2023-01-22T15:17:58.066Z,7.95
2023-01-22T15:20:25.209Z,7.95
2023-01-22T15:22:52.320Z,7.63
2023-01-22T15:25:20.943Z,7.85
2023-01-22T15:27:47.708Z,8.30
2023-01-22T15:30:15.220Z,7.95
2023-01-22T15:32:42.551Z,9.20
2023-01-22T15:35:10.375Z,7.95
2023-01-22T15:37:37.493Z,7.93
2023-01-22T15:40:05.441Z,8.57
2023-01-22T15:42:33.968Z,7.53
2023-01-22T15:45:00.825Z,7.38
2023-01-22T15:47:27.684Z,8.50
2023-01-22T15:49:54.711Z,8.20
2023-01-22T15:52:21.549Z,7.18
2023-01-22T15:54:48.417Z,8.30
2023-01-22T15:57:17.715Z,8.35
2023-01-22T15:59:45.973Z,7.90
2023-01-22T16:02:13.290Z,8.75
2023-01-22T16:04:40.212Z,8.77
2023-01-22T16:07:07.037Z,8.40
2023-01-22T16:09:35.039Z,8.25
2023-01-22T16:12:02.137Z,8.65
2023-01-22T16:14:29.466Z,8.57
2023-01-22T16:16:57.671Z,8.70
2023-01-22T16:19:24.721Z,8.25
2023-01-22T16:21:53.475Z,8.48
2023-01-22T16:24:20.274Z,8.60
2023-01-22T16:26:47.166Z,8.57
2023-01-22T16:29:17.185Z,9.18
2023-01-22T16:31:44.206Z,8.95
2023-01-22T16:34:14.733Z,8.00
2023-01-22T16:36:42.821Z,8.15
2023-01-22T16:39:16.204Z,7.72
2023-01-22T16:41:43.030Z,7.75
2023-01-22T16:44:12.196Z,8.65
2023-01-22T16:46:41.204Z,7.75
2023-01-22T16:49:12.132Z,8.10
2023-01-22T16:51:42.413Z,8.57
2023-01-22T16:54:17.859Z,7.95
2023-01-22T16:56:44.859Z,8.70
2023-01-22T16:59:15.547Z,8.00
2023-01-22T17:01:44.138Z,7.63
2023-01-22T17:04:11.285Z,8.30
2023-01-22T17:06:42.840Z,9.20
2023-01-22T17:09:14.321Z,10.43
2023-01-22T17:11:41.396Z,9.73
2023-01-22T17:14:08.188Z,9.88
2023-01-22T17:16:35.637Z,9.02
2023-01-22T17:19:02.489Z,8.48
2023-01-22T17:21:30.470Z,9.82
2023-01-22T17:23:59.018Z,8.82
2023-01-22T17:26:27.074Z,8.55
2023-01-22T17:28:55.477Z,8.27
2023-01-22T17:31:25.769Z,7.82
2023-01-22T17:33:53.175Z,7.68
2023-01-22T17:36:19.916Z,7.93
2023-01-22T17:38:47.781Z,9.90
2023-01-22T17:41:18.052Z,9.35
2023-01-22T17:43:49.038Z,9.40
2023-01-22T17:46:17.449Z,10.07
2023-01-22T17:48:45.234Z,8.57
2023-01-22T17:51:14.335Z,10.60
2023-01-22T17:53:42.753Z,9.45
2023-01-22T17:56:12.843Z,7.57
2023-01-22T17:58:42.995Z,7.13
2023-01-22T18:01:11.753Z,7.65
2023-01-22T18:03:41.039Z,7.07
2023-01-22T18:06:08.352Z,7.20
2023-01-22T18:08:36.791Z,7.90
2023-01-22T18:11:06.348Z,7.85
2023-01-22T18:13:33.938Z,7.07
2023-01-22T18:16:02.893Z,7.28
2023-01-22T18:18:29.895Z,7.68
2023-01-22T18:20:59.133Z,7.45
2023-01-22T18:23:26.514Z,6.57
2023-01-22T18:25:53.713Z,6.13
2023-01-22T18:28:20.599Z,6.15
2023-01-22T18:30:51.349Z,6.55
2023-01-22T18:33:20.822Z,6.05
2023-01-22T18:35:49.784Z,7.50
2023-01-22T18:38:17.331Z,6.60
2023-01-22T18:40:44.628Z,6.70
2023-01-22T18:43:11.563Z,8.85
2023-01-22T18:45:41.142Z,9.05
2023-01-22T18:48:12.731Z,9.15
2023-01-22T18:50:41.897Z,8.25
2023-01-22T18:53:09.962Z,7.25
2023-01-22T18:55:37.029Z,11.10
2023-01-22T18:58:33.512Z,8.02
2023-01-22T19:01:09.138Z,7.47
2023-01-22T19:03:36.392Z,6.82
2023-01-22T19:06:06.573Z,6.68
2023-01-22T19:08:33.519Z,6.80
2023-01-22T19:11:02.547Z,6.78
2023-01-22T19:13:29.318Z,5.70
2023-01-22T19:16:01.842Z,5.85
2023-01-22T19:18:29.577Z,6.13
2023-01-22T19:21:03.347Z,7.80
2023-01-22T19:23:34.985Z,6.32
2023-01-22T19:26:06.607Z,6.53
2023-01-22T19:28:35.670Z,6.72
2023-01-22T19:31:02.729Z,6.40
2023-01-22T19:33:33.406Z,6.05
2023-01-22T19:36:03.827Z,5.88
2023-01-22T19:38:33.821Z,7.07
2023-01-22T19:41:01.923Z,6.13
2023-01-22T19:43:28.768Z,7.13
2023-01-22T19:46:04.569Z,7.13
2023-01-22T19:48:31.504Z,6.75
2023-01-22T19:51:01.949Z,7.68
2023-01-22T19:53:36.769Z,7.00
2023-01-22T19:56:16.102Z,6.20
2023-01-22T19:58:43.032Z,5.47
2023-01-22T20:01:10.905Z,5.80
2023-01-22T20:03:38.371Z,5.43
2023-01-22T20:06:06.232Z,5.53
2023-01-22T20:08:35.328Z,6.95
2023-01-22T20:11:19.539Z,6.57
2023-01-22T20:13:52.677Z,6.88
2023-01-22T20:16:24.186Z,7.00
2023-01-22T20:18:52.472Z,6.78
2023-01-22T20:21:20.755Z,5.30
2023-01-22T20:23:52.953Z,6.05
2023-01-22T20:26:21.216Z,6.55
2023-01-22T20:28:51.222Z,6.03
2023-01-22T20:31:24.091Z,6.63
2023-01-22T20:33:54.554Z,5.82
2023-01-22T20:36:29.156Z,6.40
2023-01-22T20:39:00.669Z,7.35
2023-01-22T20:41:27.783Z,6.93
2023-01-22T20:43:57.808Z,7.40
2023-01-22T20:46:27.569Z,7.63
2023-01-22T20:48:57.463Z,8.50
2023-01-22T20:51:26.862Z,7.60
2023-01-22T20:53:55.272Z,6.32
2023-01-22T20:56:26.114Z,6.72
2023-01-22T20:58:58.196Z,6.65
2023-01-22T21:01:26.033Z,6.88
2023-01-22T21:03:54.632Z,7.85
2023-01-22T21:06:22.101Z,7.10
2023-01-22T21:08:53.395Z,7.60
2023-01-22T21:13:51.433Z,7.25
2023-01-22T21:16:21.601Z,7.53
2023-01-22T21:18:50.604Z,8.88
2023-01-22T21:21:19.362Z,9.15
2023-01-22T21:23:50.379Z,8.88
2023-01-22T21:26:21.027Z,9.75
2023-01-22T21:28:49.589Z,9.30
2023-01-22T21:31:18.518Z,9.13
2023-01-22T21:33:51.243Z,8.52
2023-01-22T21:36:19.949Z,7.28
2023-01-22T21:38:47.175Z,6.38
2023-01-22T21:41:41.622Z,6.38
2023-01-22T21:44:15.134Z,5.85
2023-01-22T21:46:43.734Z,6.07
2023-01-22T21:49:12.885Z,5.60
2023-01-22T21:51:39.692Z,5.53
2023-01-22T21:54:06.655Z,4.82
2023-01-22T21:56:34.109Z,5.93
2023-01-22T21:59:01.100Z,6.90
2023-01-22T22:01:29.485Z,5.20
2023-01-22T22:03:59.774Z,5.20
2023-01-22T22:06:28.380Z,5.20
2023-01-22T22:08:55.280Z,4.78
2023-01-22T22:11:22.390Z,5.22
2023-01-22T22:13:49.298Z,5.78
2023-01-22T22:16:16.314Z,5.22
2023-01-22T22:18:44.555Z,5.13
2023-01-22T22:21:12.364Z,5.30
2023-01-22T22:23:40.175Z,5.35
2023-01-22T22:26:08.151Z,5.82
2023-01-22T22:28:35.683Z,5.70
2023-01-22T22:31:04.875Z,6.30
2023-01-22T22:33:31.755Z,6.20
2023-01-22T22:36:00.402Z,5.82
2023-01-22T22:38:27.484Z,5.47
2023-01-22T22:40:58.837Z,5.15
2023-01-22T22:45:53.049Z,5.80
2023-01-22T22:48:19.845Z,6.70
2023-01-22T22:50:46.973Z,5.93
2023-01-22T22:53:15.270Z,6.20
2023-01-22T22:55:42.332Z,6.68
2023-01-22T22:58:09.630Z,6.20
2023-01-22T23:00:36.720Z,5.70
2023-01-22T23:03:03.614Z,6.18
2023-01-22T23:05:36.428Z,5.78
2023-01-22T23:08:04.039Z,6.47
2023-01-22T23:10:32.404Z,5.97
2023-01-22T23:13:01.466Z,6.15
2023-01-22T23:15:30.295Z,5.90
2023-01-22T23:17:58.520Z,6.53
2023-01-22T23:20:27.364Z,5.90
2023-01-22T23:22:55.032Z,5.93
2023-01-22T23:25:21.821Z,5.40
2023-01-22T23:27:50.309Z,6.00
2023-01-22T23:30:18.023Z,5.72
2023-01-22T23:32:45.351Z,6.82
2023-01-22T23:35:12.311Z,6.30
2023-01-22T23:37:39.467Z,5.90
2023-01-22T23:40:07.640Z,5.40
2023-01-22T23:42:34.713Z,5.85
2023-01-22T23:45:03.072Z,5.63
2023-01-22T23:47:29.852Z,5.90
2023-01-22T23:49:57.182Z,6.07
2023-01-22T23:55:14.963Z,5.77
2023-01-22T23:57:41.855Z,6.95
